Time;durP1;ratioP1;P1;durP2;ratioP2;P2;SDS_P1;SDS_P2;PMS_P1;PMS_P2;Temp;Humidity;BMP_temperature;BMP_pressure;BME280_temperature;BME280_humidity;BME280_pressure;Samples;Min_cycle;Max_cycle;Signal;HPM_P1;HPM_P2
2022/03/25 00:01:45;;;;;;;40.97;25.02;;;;;;;6.65;100.00;103168.28;5058577;28;20514;-28
2022/03/25 00:04:18;;;;;;;34.40;21.20;;;;;;;6.62;100.00;103168.72;5063463;28;20051;-29
2022/03/25 00:06:47;;;;;;;44.47;28.45;;;;;;;6.59;100.00;103175.59;5058299;28;20079;-29
2022/03/25 00:09:14;;;;;;;36.88;23.38;;;;;;;6.55;100.00;103175.16;5063678;28;20060;-27
2022/03/25 00:11:42;;;;;;;32.67;21.90;;;;;;;6.52;100.00;103169.19;5058926;28;20041;-28
2022/03/25 00:14:11;;;;;;;49.05;30.08;;;;;;;6.47;100.00;103167.03;5063796;28;20430;-28
2022/03/25 00:16:38;;;;;;;37.28;23.63;;;;;;;6.44;100.00;103170.25;5058282;28;20109;-27
2022/03/25 00:19:06;;;;;;;36.58;22.88;;;;;;;6.40;100.00;103176.44;5063684;28;20064;-29
2022/03/25 00:21:34;;;;;;;33.42;21.38;;;;;;;6.36;100.00;103176.03;5058530;28;20553;-29
2022/03/25 00:24:04;;;;;;;36.20;23.98;;;;;;;6.33;100.00;103173.69;5062848;28;20048;-28
2022/03/25 00:26:32;;;;;;;33.33;20.75;;;;;;;6.30;100.00;103178.78;5058834;28;20044;-30
2022/03/25 00:29:01;;;;;;;34.10;22.10;;;;;;;6.27;100.00;103173.69;5042526;28;20045;-34
2022/03/25 00:31:29;;;;;;;41.30;26.23;;;;;;;6.23;100.00;103181.56;5041317;28;20139;-29
2022/03/25 00:33:56;;;;;;;35.80;22.40;;;;;;;6.21;100.00;103178.16;5042122;28;20044;-28
2022/03/25 00:36:24;;;;;;;36.83;22.67;;;;;;;6.19;100.00;103177.53;5058638;28;20075;-28
2022/03/25 00:38:53;;;;;;;40.65;25.60;;;;;;;6.16;100.00;103176.03;5060972;28;20123;-28
2022/03/25 00:41:23;;;;;;;33.88;21.08;;;;;;;6.13;100.00;103182.00;5041358;28;20051;-29
2022/03/25 00:43:51;;;;;;;32.05;21.17;;;;;;;6.08;100.00;103175.38;5059947;28;20128;-29
2022/03/25 00:46:19;;;;;;;38.17;24.00;;;;;;;6.05;100.00;103167.50;5058963;28;20053;-34
2022/03/25 00:48:47;;;;;;;48.17;30.30;;;;;;;6.02;100.00;103162.38;5059414;28;20512;-28
2022/03/25 00:51:15;;;;;;;37.65;23.45;;;;;;;6.00;100.00;103172.81;5041572;28;20139;-29
2022/03/25 00:53:42;;;;;;;34.45;22.10;;;;;;;5.95;100.00;103172.63;5058435;28;20556;-28
2022/03/25 00:56:10;;;;;;;30.92;19.55;;;;;;;5.92;100.00;103171.13;5044285;28;20049;-28
2022/03/25 00:58:40;;;;;;;31.02;20.08;;;;;;;5.90;100.00;103169.63;5057371;28;20049;-29
2022/03/25 01:01:08;;;;;;;33.35;21.92;;;;;;;5.85;100.00;103173.84;5045116;28;20061;-28
2022/03/25 01:03:36;;;;;;;34.15;21.45;;;;;;;5.82;100.00;103167.84;5040287;28;20077;-29
2022/03/25 01:06:04;;;;;;;33.08;20.80;;;;;;;5.79;100.00;103171.06;5062516;28;20127;-27
2022/03/25 01:08:32;;;;;;;31.17;19.42;;;;;;;5.75;100.00;103170.63;5039981;28;20045;-28
2022/03/25 01:11:01;;;;;;;37.40;21.42;;;;;;;5.72;100.00;103173.81;5062228;28;20171;-28
2022/03/25 01:13:33;;;;;;;36.10;23.25;;;;;;;5.68;100.00;103166.13;5057562;28;20048;-34
2022/03/25 01:16:05;;;;;;;30.45;19.60;;;;;;;5.66;100.00;103177.44;5044942;28;20046;-34
2022/03/25 01:18:33;;;;;;;28.17;17.52;;;;;;;5.62;100.00;103172.50;5039413;28;20490;-34
2022/03/25 01:21:01;;;;;;;28.70;17.40;;;;;;;5.59;100.00;103171.03;5062357;28;20041;-29
2022/03/25 01:23:29;;;;;;;30.67;18.90;;;;;;;5.58;100.00;103177.63;5039733;28;20060;-29
2022/03/25 01:25:57;;;;;;;33.42;20.63;;;;;;;5.56;100.00;103179.75;5059930;28;20562;-31
2022/03/25 01:28:25;;;;;;;27.63;17.92;;;;;;;5.54;100.00;103177.19;5040930;28;20048;-28
2022/03/25 01:30:54;;;;;;;29.40;18.58;;;;;;;5.53;100.00;103175.50;5059107;28;20048;-28
2022/03/25 01:33:23;;;;;;;39.63;24.05;;;;;;;5.51;100.00;103183.16;5063432;28;20478;-30
2022/03/25 01:35:51;;;;;;;37.25;22.65;;;;;;;5.47;100.00;103179.09;5041045;28;20063;-30
2022/03/25 01:38:20;;;;;;;30.77;19.88;;;;;;;5.45;100.00;103177.59;5044533;28;20049;-29
2022/03/25 01:40:48;;;;;;;31.00;19.20;;;;;;;5.42;100.00;103178.00;5042044;28;20042;-34
2022/03/25 01:43:16;;;;;;;32.28;19.20;;;;;;;5.39;100.00;103178.44;5046439;28;20056;-29
2022/03/25 01:45:44;;;;;;;31.00;19.33;;;;;;;5.38;100.00;103171.19;5042505;28;20216;-29
2022/03/25 01:48:16;;;;;;;32.95;20.95;;;;;;;5.37;100.00;103175.03;5043091;28;20049;-28
2022/03/25 01:50:47;;;;;;;31.05;20.42;;;;;;;5.35;100.00;103177.13;5042359;28;20129;-28
2022/03/25 01:53:16;;;;;;;34.28;21.50;;;;;;;5.32;100.00;103172.88;5041797;28;20092;-31
2022/03/25 01:55:50;;;;;;;32.70;20.08;;;;;;;5.31;100.00;103170.31;5044415;28;20064;-29
2022/03/25 01:58:19;;;;;;;33.45;20.13;;;;;;;5.28;100.00;103167.94;5040098;28;20053;-28
2022/03/25 02:00:47;;;;;;;31.15;17.67;;;;;;;5.25;100.00;103171.13;5042724;28;20477;-29
2022/03/25 02:03:16;;;;;;;31.23;19.73;;;;;;;5.22;100.00;103166.00;5039612;28;20049;-30
2022/03/25 02:05:46;;;;;;;31.38;18.88;;;;;;;5.19;100.00;103165.38;5044935;28;20398;-30
2022/03/25 02:08:15;;;;;;;29.67;19.05;;;;;;;5.15;100.00;103166.84;5038011;28;20083;-33
2022/03/25 02:10:44;;;;;;;31.92;20.00;;;;;;;5.12;100.00;103161.72;5043120;28;20048;-30
2022/03/25 02:13:13;;;;;;;33.40;21.40;;;;;;;5.12;100.00;103166.41;5037347;28;20477;-32
2022/03/25 02:15:48;;;;;;;34.75;20.95;;;;;;;5.08;100.00;103154.03;5042595;28;20047;-28
2022/03/25 02:18:19;;;;;;;33.45;20.67;;;;;;;5.07;100.00;103158.72;5039896;28;20068;-29
2022/03/25 02:20:49;;;;;;;29.98;18.58;;;;;;;5.03;100.00;103162.94;5044628;28;20525;-29
2022/03/25 02:23:22;;;;;;;27.00;16.80;;;;;;;5.01;100.00;103158.66;5037687;28;20108;-29
2022/03/25 02:25:52;;;;;;;28.35;16.67;;;;;;;4.97;100.00;103158.25;5043318;28;20494;-26
2022/03/25 02:28:22;;;;;;;26.85;16.85;;;;;;;4.96;100.00;103159.31;5038722;28;20046;-29
2022/03/25 02:30:53;;;;;;;23.90;14.93;;;;;;;4.94;100.00;103157.81;5046959;28;20111;-29
2022/03/25 02:33:21;;;;;;;33.35;20.77;;;;;;;4.92;100.00;103166.31;5042730;28;20494;-28
2022/03/25 02:35:50;;;;;;;43.67;26.13;;;;;;;4.90;100.00;103162.03;5050642;28;20073;-29
2022/03/25 02:38:22;;;;;;;48.80;28.65;;;;;;;4.90;100.00;103162.88;5047496;28;20245;-28
2022/03/25 02:40:50;;;;;;;40.45;24.42;;;;;;;4.91;100.00;103152.69;5049004;28;20696;-34
2022/03/25 02:43:19;;;;;;;41.08;23.45;;;;;;;4.91;100.00;103153.53;5066387;28;20239;-27
2022/03/25 02:46:00;;;;;;;38.53;22.23;;;;;;;4.91;100.00;103147.16;5048592;28;20136;-27
2022/03/25 02:48:28;;;;;;;51.13;28.75;;;;;;;4.90;100.00;103139.91;5062487;28;20052;-28
2022/03/25 02:50:56;;;;;;;42.63;24.20;;;;;;;4.91;100.00;103148.00;5042836;28;20506;-27
2022/03/25 02:53:25;;;;;;;42.95;25.73;;;;;;;4.91;100.00;103147.16;5062926;28;20052;-28
2022/03/25 02:55:53;;;;;;;38.92;22.48;;;;;;;4.90;100.00;103145.44;5060843;28;20062;-28
2022/03/25 02:58:21;;;;;;;44.97;26.20;;;;;;;4.88;100.00;103140.09;5061985;28;20047;-31
2022/03/25 03:00:49;;;;;;;43.90;25.17;;;;;;;4.89;100.00;103138.19;5061099;28;20516;-28
2022/03/25 03:03:17;;;;;;;38.50;22.88;;;;;;;4.86;100.00;103139.47;5061101;28;20632;-30
2022/03/25 03:05:45;;;;;;;38.70;22.25;;;;;;;4.82;100.00;103136.25;5061708;28;20049;-29
2022/03/25 03:08:14;;;;;;;39.65;22.08;;;;;;;4.81;100.00;103139.22;5061296;28;20056;-28
2022/03/25 03:10:43;;;;;;;51.65;30.00;;;;;;;4.78;100.00;103139.66;5063272;28;20128;-29
2022/03/25 03:13:11;;;;;;;40.78;22.70;;;;;;;4.75;100.00;103148.34;5060025;28;20072;-29
2022/03/25 03:15:39;;;;;;;43.25;25.50;;;;;;;4.70;100.00;103140.66;5064991;28;20040;-28
2022/03/25 03:18:07;;;;;;;33.78;20.40;;;;;;;4.67;100.00;103140.22;5059479;28;20064;-28
2022/03/25 03:20:35;;;;;;;39.38;22.75;;;;;;;4.65;100.00;103136.78;5064627;28;20048;-27
2022/03/25 03:23:03;;;;;;;44.15;25.98;;;;;;;4.61;100.00;103147.41;5060055;28;20041;-28
2022/03/25 03:25:31;;;;;;;40.78;24.05;;;;;;;4.58;100.00;103146.97;5064172;28;20489;-28
2022/03/25 03:28:01;;;;;;;38.13;22.08;;;;;;;4.56;100.00;103151.84;5059827;28;20370;-28
2022/03/25 03:30:29;;;;;;;44.00;24.27;;;;;;;4.53;100.00;103152.25;5064864;28;20048;-29
2022/03/25 03:32:57;;;;;;;42.15;24.15;;;;;;;4.52;100.00;103142.25;5059068;28;20040;-28
2022/03/25 03:35:26;;;;;;;45.83;26.98;;;;;;;4.52;100.00;103139.50;5063874;28;20052;-28
2022/03/25 03:37:55;;;;;;;41.30;24.38;;;;;;;4.51;100.00;103138.63;5059984;28;20044;-29
2022/03/25 03:40:23;;;;;;;43.97;25.35;;;;;;;4.52;100.00;103140.34;5061129;28;20494;-28
2022/03/25 03:42:51;;;;;;;43.33;25.17;;;;;;;4.50;100.00;103143.31;5060703;28;20056;-28
2022/03/25 03:45:20;;;;;;;50.25;28.23;;;;;;;4.48;100.00;103153.72;5061355;28;20400;-28
2022/03/25 03:47:48;;;;;;;49.08;27.33;;;;;;;4.46;100.00;103160.50;5059432;28;20524;-28
2022/03/25 03:50:17;;;;;;;40.60;24.98;;;;;;;4.42;100.00;103148.97;5062273;28;20052;-29
2022/03/25 03:52:45;;;;;;;44.60;25.25;;;;;;;4.42;100.00;103156.41;5059351;28;20048;-29
2022/03/25 03:55:14;;;;;;;42.70;24.92;;;;;;;4.42;100.00;103148.13;5061164;28;20051;-29
2022/03/25 03:57:42;;;;;;;51.83;29.58;;;;;;;4.41;100.00;103147.28;5060259;28;20521;-29
2022/03/25 04:00:12;;;;;;;43.15;23.88;;;;;;;4.43;100.00;103144.31;5059308;28;20053;-29
2022/03/25 04:02:44;;;;;;;43.13;24.52;;;;;;;4.43;100.00;103144.31;5061077;28;20053;-29
2022/03/25 04:05:13;;;;;;;43.50;24.83;;;;;;;4.41;100.00;103138.97;5065448;28;20048;-27
2022/03/25 04:07:42;;;;;;;47.63;24.85;;;;;;;4.41;100.00;103141.75;5063261;28;20048;-28
2022/03/25 04:10:10;;;;;;;39.25;21.63;;;;;;;4.40;100.00;103139.19;5066012;28;20046;-27
2022/03/25 04:12:38;;;;;;;42.05;24.08;;;;;;;4.37;100.00;103143.22;5061581;28;20131;-28
2022/03/25 04:15:09;;;;;;;37.20;20.63;;;;;;;4.34;100.00;103145.53;5065669;28;20044;-30
2022/03/25 04:17:38;;;;;;;57.25;31.60;;;;;;;4.32;100.00;103153.19;5061152;28;20082;-29
2022/03/25 04:20:08;;;;;;;43.72;25.00;;;;;;;4.31;100.00;103140.41;5066094;28;20404;-29
2022/03/25 04:22:36;;;;;;;42.95;24.00;;;;;;;4.27;100.00;103142.72;5060326;28;20052;-27
2022/03/25 04:25:06;;;;;;;41.47;23.63;;;;;;;4.26;100.00;103149.28;5066069;28;20040;-28
2022/03/25 04:27:34;;;;;;;48.30;26.65;;;;;;;4.23;100.00;103149.69;5061141;28;20049;-28
2022/03/25 04:30:02;;;;;;;48.80;27.17;;;;;;;4.23;100.00;103144.16;5065322;28;20052;-28
2022/03/25 04:32:29;;;;;;;41.25;22.95;;;;;;;4.22;100.00;103153.50;5060716;28;20044;-28
2022/03/25 04:34:57;;;;;;;37.42;21.50;;;;;;;4.21;100.00;103150.94;5064005;28;20043;-27
2022/03/25 04:37:26;;;;;;;39.47;22.75;;;;;;;4.20;100.00;103152.84;5060111;28;20457;-28
2022/03/25 04:39:54;;;;;;;39.85;22.08;;;;;;;4.20;100.00;103157.56;5063070;28;20045;-29
2022/03/25 04:42:22;;;;;;;41.40;22.83;;;;;;;4.19;100.00;103156.72;5062089;28;20498;-28
2022/03/25 04:44:49;;;;;;;45.05;24.83;;;;;;;4.15;100.00;103155.38;5063202;28;20545;-29
2022/03/25 04:47:17;;;;;;;42.83;23.48;;;;;;;4.14;100.00;103153.69;5062356;28;20041;-28
2022/03/25 04:49:45;;;;;;;42.58;24.70;;;;;;;4.11;100.00;103148.56;5057341;28;20044;-28
2022/03/25 04:52:13;;;;;;;43.28;23.83;;;;;;;4.09;100.00;103158.94;5059714;28;20048;-28
2022/03/25 04:54:42;;;;;;;39.78;21.10;;;;;;;4.05;100.00;103152.09;5059440;28;20045;-29
2022/03/25 04:57:10;;;;;;;38.60;21.25;;;;;;;4.01;100.00;103156.31;5063843;28;20057;-29
2022/03/25 04:59:38;;;;;;;35.33;19.50;;;;;;;3.99;100.00;103158.44;5064275;28;20052;-29
2022/03/25 05:02:06;;;;;;;43.33;25.15;;;;;;;3.95;100.00;103162.66;5064277;28;20166;-28
2022/03/25 05:04:34;;;;;;;47.55;25.80;;;;;;;3.94;100.00;103161.81;5062199;28;20099;-28
2022/03/25 05:07:01;;;;;;;47.47;25.63;;;;;;;3.91;100.00;103155.81;5065454;28;20074;-28
2022/03/25 05:09:29;;;;;;;45.75;24.25;;;;;;;3.91;100.00;103158.56;5060213;28;20052;-28
2022/03/25 05:11:58;;;;;;;44.83;25.92;;;;;;;3.87;100.00;103163.63;5064820;28;20044;-28
2022/03/25 05:14:26;;;;;;;40.28;22.75;;;;;;;3.86;100.00;103166.59;5060226;28;20052;-28
2022/03/25 05:16:54;;;;;;;47.25;25.20;;;;;;;3.81;100.00;103168.03;5065002;28;20042;-28
2022/03/25 05:19:22;;;;;;;40.60;22.73;;;;;;;3.78;100.00;103173.13;5059557;28;20041;-34
2022/03/25 05:21:49;;;;;;;40.45;21.85;;;;;;;3.77;100.00;103175.03;5064935;28;20126;-30
2022/03/25 05:24:17;;;;;;;39.95;21.33;;;;;;;3.75;100.00;103177.13;5059277;28;20057;-28
2022/03/25 05:26:45;;;;;;;43.05;22.73;;;;;;;3.75;100.00;103179.91;5064423;28;20056;-29
2022/03/25 05:29:14;;;;;;;45.40;23.67;;;;;;;3.74;100.00;103182.84;5060425;28;20516;-29
2022/03/25 05:31:41;;;;;;;48.25;27.17;;;;;;;3.72;100.00;103185.81;5063970;28;20052;-28
2022/03/25 05:34:09;;;;;;;40.47;21.55;;;;;;;3.73;100.00;103184.75;5062105;28;20506;-27
2022/03/25 05:36:37;;;;;;;42.65;22.08;;;;;;;3.73;100.00;103182.00;5063436;28;20494;-28
2022/03/25 05:39:06;;;;;;;41.75;23.27;;;;;;;3.75;100.00;103190.94;5062324;28;20057;-28
2022/03/25 05:41:33;;;;;;;41.85;23.67;;;;;;;3.76;100.00;103189.03;5063865;28;20049;-31
2022/03/25 05:44:06;;;;;;;;;;;;;;;3.74;100.00;103188.38;5044876;28;20477;-33
2022/03/25 05:46:35;;;;;;;48.13;26.45;;;;;;;3.72;100.00;103183.03;5057161;28;19921;-31
2022/03/25 05:49:03;;;;;;;43.63;24.10;;;;;;;3.77;100.00;103186.06;5060003;28;20049;-29
2022/03/25 05:51:31;;;;;;;45.65;25.17;;;;;;;3.79;100.00;103203.31;5058607;28;20055;-30
2022/03/25 05:53:59;;;;;;;44.53;24.35;;;;;;;3.80;100.00;103193.09;5057807;28;20043;-29
2022/03/25 05:56:26;;;;;;;48.83;26.13;;;;;;;3.80;100.00;103198.59;5058947;28;20044;-29
2022/03/25 05:58:54;;;;;;;41.60;23.75;;;;;;;3.83;100.00;103194.59;5057796;28;20049;-27
2022/03/25 06:01:22;;;;;;;43.25;24.50;;;;;;;3.85;100.00;103193.34;5059802;28;20055;-27
2022/03/25 06:03:51;;;;;;;45.50;24.52;;;;;;;3.85;100.00;103207.16;5058852;28;20520;-28
2022/03/25 06:06:19;;;;;;;48.00;26.95;;;;;;;3.88;100.00;103197.63;5065713;28;20059;-28
2022/03/25 06:08:50;;;;;;;43.72;23.25;;;;;;;3.88;100.00;103201.25;5068784;28;20135;-29
2022/03/25 06:11:18;;;;;;;46.72;24.38;;;;;;;3.91;100.00;103192.56;5067770;28;20061;-28
2022/03/25 06:13:46;;;;;;;53.22;29.25;;;;;;;3.96;100.00;103197.50;5060677;28;20045;-28
2022/03/25 06:16:13;;;;;;;50.92;28.17;;;;;;;3.99;100.00;103216.47;5065894;28;20042;-28
2022/03/25 06:18:41;;;;;;;46.85;25.17;;;;;;;4.03;100.00;103209.47;5060506;28;20044;-28
2022/03/25 06:21:10;;;;;;;59.50;31.67;;;;;;;4.10;100.00;103208.47;5065154;28;20076;-30
2022/03/25 06:23:38;;;;;;;61.47;31.58;;;;;;;4.19;100.00;103208.34;5060323;28;20056;-30
2022/03/25 06:26:07;;;;;;;53.75;29.30;;;;;;;4.26;100.00;103209.25;5064591;28;20394;-28
2022/03/25 06:28:35;;;;;;;64.28;32.38;;;;;;;4.35;100.00;103219.13;5060088;28;20041;-28
2022/03/25 06:31:02;;;;;;;62.05;32.00;;;;;;;4.42;100.00;103209.78;5063176;28;20049;-28
2022/03/25 06:33:31;;;;;;;63.17;33.95;;;;;;;4.52;100.00;103220.53;5061756;28;20053;-30
2022/03/25 06:35:58;;;;;;;70.18;36.97;;;;;;;4.61;100.00;103212.91;5061919;28;20384;-32
2022/03/25 06:38:28;;;;;;;59.65;31.88;;;;;;;4.69;100.00;103226.59;5060317;28;20040;-28
2022/03/25 06:40:55;;;;;;;63.05;33.85;;;;;;;4.78;100.00;103228.16;5063011;28;20044;-28
2022/03/25 06:43:23;;;;;;;66.20;33.90;;;;;;;4.87;100.00;103238.00;5060805;28;20064;-29
2022/03/25 06:45:51;;;;;;;68.38;35.15;;;;;;;4.95;100.00;103232.31;5062339;28;20424;-27
2022/03/25 06:48:19;;;;;;;65.70;34.95;;;;;;;5.06;100.00;103231.72;5061327;28;20057;-29
2022/03/25 06:50:48;;;;;;;70.78;39.65;;;;;;;5.18;100.00;103224.56;5060677;28;20514;-27
2022/03/25 06:53:16;;;;;;;70.30;37.38;;;;;;;5.34;100.00;103241.88;5044738;28;20057;-29
2022/03/25 06:55:46;;;;;;;70.32;39.22;;;;;;;5.57;100.00;103233.22;5059679;28;20470;-27
2022/03/25 06:58:14;;;;;;;69.95;37.53;;;;;;;5.90;100.00;103244.44;5063919;28;20048;-27
2022/03/25 07:00:42;;;;;;;72.32;38.60;;;;;;;6.21;100.00;103248.31;5067535;28;20486;-29
2022/03/25 07:03:14;;;;;;;75.93;40.85;;;;;;;6.55;100.00;103244.50;5060406;28;20106;-28
2022/03/25 07:05:42;;;;;;;77.63;41.85;;;;;;;6.89;100.00;103240.59;5066022;28;20056;-28
2022/03/25 07:08:10;;;;;;;73.82;39.88;;;;;;;7.33;100.00;103252.03;5061420;28;20422;-28
2022/03/25 07:10:39;;;;;;;77.95;42.13;;;;;;;7.82;100.00;103246.66;5065469;28;20044;-30
2022/03/25 07:13:09;;;;;;;78.93;44.05;;;;;;;8.44;100.00;103255.25;5060189;28;20048;-28
2022/03/25 07:15:37;;;;;;;73.05;40.80;;;;;;;9.07;100.00;103258.72;5065929;28;20041;-28
2022/03/25 07:18:05;;;;;;;66.32;38.10;;;;;;;9.79;100.00;103254.19;5060354;28;20045;-30
2022/03/25 07:20:33;;;;;;;69.47;40.28;;;;;;;10.46;100.00;103257.72;5062741;28;20041;-31
2022/03/25 07:23:01;;;;;;;67.45;38.63;;;;;;;11.07;100.00;103258.38;5061435;28;20123;-29
2022/03/25 07:25:31;;;;;;;68.93;40.25;;;;;;;11.65;100.00;103264.69;5065278;28;20041;-31
2022/03/25 07:27:58;;;;;;;62.72;36.55;;;;;;;12.23;100.00;103263.63;5063251;28;20041;-35
2022/03/25 07:30:28;;;;;;;58.50;37.47;;;;;;;12.83;100.00;103264.94;5064135;28;20037;-32
2022/03/25 07:32:55;;;;;;;57.17;35.72;;;;;;;13.38;100.00;103265.81;5063004;28;20431;-29
2022/03/25 07:35:23;;;;;;;59.95;37.05;;;;;;;13.94;100.00;103263.72;5064349;28;20060;-29
2022/03/25 07:37:51;;;;;;;64.13;39.45;;;;;;;14.48;97.65;103269.34;5063428;28;20075;-29
2022/03/25 07:40:19;;;;;;;52.85;35.28;;;;;;;14.99;93.42;103275.38;5063946;28;20367;-30
2022/03/25 07:42:47;;;;;;;55.30;35.63;;;;;;;15.45;90.01;103279.34;5063669;28;20123;-31
2022/03/25 07:45:15;;;;;;;52.47;34.08;;;;;;;15.90;86.22;103272.25;5064194;28;20056;-32
2022/03/25 07:47:47;;;;;;;49.70;32.45;;;;;;;16.29;82.47;103276.28;5064160;28;20048;-35
2022/03/25 07:50:16;;;;;;;44.53;31.88;;;;;;;16.70;79.29;103279.19;5064203;28;20113;-29
2022/03/25 07:52:44;;;;;;;43.55;29.60;;;;;;;17.09;75.81;103283.09;5058367;28;20068;-30
2022/03/25 07:55:13;;;;;;;45.10;30.45;;;;;;;17.46;72.40;103282.72;5061399;28;20049;-32
2022/03/25 07:57:41;;;;;;;43.53;30.80;;;;;;;17.78;68.43;103281.53;5057709;28;20485;-32
2022/03/25 08:00:12;;;;;;;43.78;31.52;;;;;;;18.14;65.94;103288.69;5062304;28;20059;-31
2022/03/25 08:02:41;;;;;;;39.47;27.35;;;;;;;18.49;64.16;103289.56;5055606;28;20072;-29
2022/03/25 08:05:13;;;;;;;38.90;27.92;;;;;;;18.83;61.04;103296.13;5063067;28;20080;-30
2022/03/25 08:07:43;;;;;;;39.72;29.30;;;;;;;19.09;57.77;103296.72;5057193;28;20052;-29
2022/03/25 08:10:11;;;;;;;40.20;27.95;;;;;;;19.27;56.68;103298.81;5062959;28;20053;-36
2022/03/25 08:12:39;;;;;;;36.13;26.08;;;;;;;19.50;55.26;103299.16;5057595;28;20100;-31
2022/03/25 08:15:07;;;;;;;38.17;27.35;;;;;;;19.64;52.70;103294.47;5061939;28;20552;-30
2022/03/25 08:17:54;;;;;;;33.33;25.33;;;;;;;19.92;51.02;103302.03;5056937;28;20063;-29
2022/03/25 08:20:26;;;;;;;34.83;25.08;;;;;;;20.18;50.74;103298.88;5061996;28;20040;-34
2022/03/25 08:22:56;;;;;;;35.25;26.35;;;;;;;20.41;49.40;103303.63;5057507;28;20052;-31
2022/03/25 08:28:10;;;;;;;33.40;24.63;;;;;;;20.90;47.87;103302.28;5056576;28;20059;-30
2022/03/25 08:30:38;;;;;;;33.63;25.60;;;;;;;21.22;46.08;103307.13;5062630;28;20072;-30
2022/03/25 08:33:07;;;;;;;35.55;27.75;;;;;;;21.46;44.78;103309.81;5057242;28;20098;-31
2022/03/25 08:35:37;;;;;;;37.72;27.38;;;;;;;21.63;43.33;103310.03;5061499;28;20135;-31
2022/03/25 08:38:07;;;;;;;36.38;27.08;;;;;;;21.78;42.28;103314.56;5056618;28;20056;-30
2022/03/25 08:40:35;;;;;;;33.78;25.55;;;;;;;21.96;41.84;103305.94;5059309;28;20048;-31
2022/03/25 08:43:13;;;;;;;31.77;24.80;;;;;;;22.11;41.08;103309.63;5056335;28;20040;-31
2022/03/25 08:45:41;;;;;;;31.52;24.77;;;;;;;22.15;39.68;103297.28;5062258;28;20041;-36
2022/03/25 08:48:10;;;;;;;32.75;24.67;;;;;;;22.21;39.13;103304.53;5058254;28;20051;-30
2022/03/25 08:50:39;;;;;;;37.42;26.67;;;;;;;22.19;37.48;103298.31;5059663;28;20044;-31
2022/03/25 08:53:07;;;;;;;33.38;25.00;;;;;;;22.20;37.40;103304.84;5058945;28;20049;-30
2022/03/25 08:55:35;;;;;;;35.25;26.58;;;;;;;22.38;36.46;103312.41;5060154;28;20063;-30
2022/03/25 08:58:03;;;;;;;37.20;26.67;;;;;;;22.63;36.08;103310.94;5064378;28;20045;-30
2022/03/25 09:00:31;;;;;;;33.63;26.30;;;;;;;22.87;35.05;103307.81;5044880;28;20076;-30
2022/03/25 09:02:59;;;;;;;33.65;24.75;;;;;;;23.01;34.58;103314.25;5065310;28;20128;-32
2022/03/25 09:05:28;;;;;;;28.88;24.00;;;;;;;23.03;34.01;103312.78;5063888;28;20045;-30
2022/03/25 09:07:57;;;;;;;30.50;22.73;;;;;;;23.10;34.44;103317.19;5064145;28;20052;-34
2022/03/25 09:10:25;;;;;;;33.58;27.10;;;;;;;23.26;33.69;103322.16;5063235;28;20425;-35
2022/03/25 09:12:53;;;;;;;35.75;27.48;;;;;;;23.43;33.17;103314.84;5062338;28;20139;-30
2022/03/25 09:15:22;;;;;;;37.95;28.23;;;;;;;23.54;32.84;103322.00;5064871;28;20123;-32
2022/03/25 09:17:50;;;;;;;34.55;26.73;;;;;;;23.72;32.54;103322.91;5059702;28;20101;-29
2022/03/25 09:20:19;;;;;;;34.95;27.45;;;;;;;23.69;31.97;103327.25;5064794;28;20041;-29
2022/03/25 09:22:47;;;;;;;36.10;27.77;;;;;;;23.71;31.91;103330.63;5059439;28;20055;-30
2022/03/25 09:25:16;;;;;;;32.92;26.00;;;;;;;23.80;31.98;103328.63;5064012;28;20139;-29
2022/03/25 09:27:44;;;;;;;37.20;28.00;;;;;;;23.88;31.80;103327.81;5059644;28;20131;-31
2022/03/25 09:30:13;;;;;;;32.83;24.55;;;;;;;24.03;31.52;103330.22;5064501;28;20131;-29
2022/03/25 09:33:01;;;;;;;29.55;22.67;;;;;;;24.06;31.34;103328.72;5041695;28;20398;-31
2022/03/25 09:35:34;;;;;;;27.65;21.23;;;;;;;24.07;30.92;103326.69;5064628;28;20493;-31
2022/03/25 09:38:02;;;;;;;28.23;22.25;;;;;;;24.12;31.01;103326.56;5059036;28;20068;-33
2022/03/25 09:40:32;;;;;;;27.83;20.65;;;;;;;24.33;30.89;103319.06;5064814;28;20508;-34
2022/03/25 09:43:00;;;;;;;26.58;20.27;;;;;;;24.46;30.15;103326.63;5058723;28;20083;-30
2022/03/25 09:45:30;;;;;;;25.60;20.95;;;;;;;24.37;28.90;103329.50;5064159;28;20473;-34
2022/03/25 09:47:58;;;;;;;27.95;21.73;;;;;;;24.21;29.10;103322.53;5059354;28;20048;-38
2022/03/25 09:50:27;;;;;;;25.15;19.95;;;;;;;24.26;29.39;103333.81;5064875;28;20048;-31
2022/03/25 09:52:56;;;;;;;24.98;19.98;;;;;;;24.38;29.10;103325.44;5060105;28;20458;-39
2022/03/25 09:55:43;;;;;;;23.58;17.20;;;;;;;24.43;28.50;103324.44;5057369;28;20048;-35
2022/03/25 09:58:12;;;;;;;24.53;19.13;;;;;;;24.45;27.74;103330.66;5061817;28;20132;-38
2022/03/25 10:00:41;;;;;;;25.85;20.55;;;;;;;24.44;27.48;103328.97;5056693;28;20299;-38
2022/03/25 10:03:23;;;;;;;30.08;22.95;;;;;;;24.52;27.50;103322.44;5061354;28;20056;-33
2022/03/25 10:05:55;;;;;;;28.00;21.88;;;;;;;24.56;27.73;103314.06;5056730;28;20041;-36
2022/03/25 10:08:44;;;;;;;24.38;19.33;;;;;;;24.35;28.26;103317.56;5062166;28;20051;-37
2022/03/25 10:11:23;;;;;;;32.05;23.45;;;;;;;24.43;27.53;103320.75;5057386;28;20140;-29
2022/03/25 10:14:11;;;;;;;27.27;20.27;;;;;;;24.37;28.01;103318.09;5061690;28;20494;-30
2022/03/25 10:16:38;;;;;;;27.85;21.40;;;;;;;24.48;26.92;103320.59;5057135;28;20072;-36
2022/03/25 10:19:07;;;;;;;29.08;22.80;;;;;;;24.53;26.98;103324.13;5062225;28;20037;-32
2022/03/25 10:21:50;;;;;;;25.95;20.35;;;;;;;24.62;26.00;103309.84;5055857;28;20582;-32
2022/03/25 10:24:19;;;;;;;29.27;21.80;;;;;;;24.76;27.53;103316.25;5062398;28;20083;-29
2022/03/25 10:26:48;;;;;;;23.98;18.88;;;;;;;24.82;27.01;103311.16;5056509;28;20065;-34
2022/03/25 10:29:22;;;;;;;26.55;21.35;;;;;;;24.78;26.60;103305.28;5061636;28;20048;-35
2022/03/25 10:32:03;;;;;;;25.65;18.92;;;;;;;24.97;25.68;103308.69;5056554;28;20062;-33
2022/03/25 10:34:32;;;;;;;26.05;19.83;;;;;;;24.93;26.02;103299.06;5060469;28;20044;-32
2022/03/25 10:37:04;;;;;;;28.27;21.90;;;;;;;24.38;25.88;103305.47;5055408;28;20061;-33
2022/03/25 10:39:32;;;;;;;26.65;20.90;;;;;;;24.07;26.40;103313.28;5060126;28;20088;-30
2022/03/25 10:42:04;;;;;;;24.20;18.52;;;;;;;24.09;26.98;103305.22;5056227;28;20115;-34
2022/03/25 10:44:37;;;;;;;23.77;18.40;;;;;;;24.31;26.08;103307.16;5059925;28;20051;-32
2022/03/25 10:47:26;;;;;;;22.77;17.95;;;;;;;24.48;25.40;103298.59;5058090;28;20123;-36
2022/03/25 10:49:55;;;;;;;20.95;15.25;;;;;;;24.56;26.14;103297.78;5063129;28;20098;-31
2022/03/25 10:52:25;;;;;;;23.30;17.77;;;;;;;24.58;25.85;103306.81;5060341;28;20044;-35
2022/03/25 10:55:20;;;;;;;24.20;17.23;;;;;;;24.62;23.96;103307.81;5064129;28;20394;-36
2022/03/25 10:57:56;;;;;;;28.33;19.48;;;;;;;24.52;25.64;103308.19;5062395;28;20186;-33
2022/03/25 11:00:26;;;;;;;24.40;17.42;;;;;;;24.59;25.59;103313.34;5070347;28;20493;-36
2022/03/25 11:02:54;;;;;;;24.08;17.73;;;;;;;24.64;24.93;103308.31;5058211;28;20046;-32
2022/03/25 11:05:22;;;;;;;25.17;16.50;;;;;;;24.60;24.76;103300.75;5063187;28;20056;-37
2022/03/25 11:07:51;;;;;;;21.83;15.70;;;;;;;24.62;24.31;103309.84;5059527;28;20055;-32
2022/03/25 11:10:20;;;;;;;25.42;18.00;;;;;;;24.57;24.26;103315.75;5060187;28;20080;-29
2022/03/25 11:12:49;;;;;;;21.17;15.07;;;;;;;24.51;24.52;103320.78;5060047;28;20048;-29
2022/03/25 11:15:20;;;;;;;20.08;15.15;;;;;;;24.43;23.98;103317.91;5060889;28;20131;-33
2022/03/25 11:17:48;;;;;;;20.67;14.68;;;;;;;24.37;24.68;103318.09;5059340;28;20040;-32
2022/03/25 11:20:19;;;;;;;24.23;17.08;;;;;;;24.44;23.78;103316.72;5059136;28;20131;-37
2022/03/25 11:22:59;;;;;;;20.15;15.35;;;;;;;24.32;23.61;103314.53;5066253;28;20115;-30